createdAt,value
2018-07-28T00:02:27.110Z,99.90
2018-07-28T00:04:56.463Z,99.90
2018-07-28T00:07:24.674Z,99.90
2018-07-28T00:12:21.916Z,99.90
2018-07-28T00:14:50.112Z,99.90
2018-07-28T00:17:18.338Z,99.90
2018-07-28T00:19:46.530Z,99.90
2018-07-28T00:22:14.730Z,99.90
2018-07-28T00:24:42.953Z,99.90
2018-07-28T00:29:44.873Z,99.90
2018-07-28T00:32:13.063Z,99.90
2018-07-28T00:34:41.259Z,99.90
2018-07-28T00:37:09.440Z,99.90
2018-07-28T00:42:06.242Z,99.90
2018-07-28T00:44:34.467Z,99.90
2018-07-28T00:47:02.665Z,99.90
2018-07-28T00:49:31.198Z,99.90
2018-07-28T00:51:59.379Z,99.90
2018-07-28T00:54:27.598Z,99.90
2018-07-28T00:56:55.829Z,99.90
2018-07-28T00:59:24.011Z,99.90
2018-07-28T01:04:20.259Z,99.90
2018-07-28T01:06:48.489Z,99.90
2018-07-28T01:09:16.709Z,99.90
2018-07-28T01:11:44.916Z,99.90
2018-07-28T01:14:16.926Z,99.90
2018-07-28T01:16:45.461Z,99.90
2018-07-28T01:19:14.992Z,99.90
2018-07-28T01:21:43.219Z,99.90
2018-07-28T01:24:11.475Z,99.90
2018-07-28T01:26:40.376Z,99.90
2018-07-28T01:29:17.114Z,99.90
2018-07-28T01:31:46.279Z,99.90
2018-07-28T01:34:14.522Z,99.90
2018-07-28T01:36:42.810Z,99.90
2018-07-28T01:41:42.558Z,99.90
2018-07-28T01:44:11.860Z,99.90
2018-07-28T01:46:43.672Z,99.90
2018-07-28T01:49:12.270Z,99.90
2018-07-28T01:51:40.475Z,99.90
2018-07-28T01:54:08.706Z,99.90
2018-07-28T01:56:37.188Z,99.90
2018-07-28T01:59:05.441Z,99.90
2018-07-28T02:01:33.640Z,99.90
2018-07-28T02:04:01.828Z,99.90
2018-07-28T02:06:30.052Z,99.90
2018-07-28T02:08:58.272Z,99.90
2018-07-28T02:11:26.618Z,99.90
2018-07-28T02:13:54.839Z,99.90
2018-07-28T02:16:23.024Z,99.90
2018-07-28T02:18:51.258Z,99.90
2018-07-28T02:21:19.429Z,99.90
2018-07-28T02:23:47.639Z,99.90
2018-07-28T02:26:16.033Z,99.90
2018-07-28T02:28:44.272Z,99.90
2018-07-28T02:31:17.142Z,99.90
2018-07-28T02:33:45.320Z,99.90
2018-07-28T02:36:13.503Z,99.90
2018-07-28T02:38:41.672Z,99.90
2018-07-28T02:41:09.888Z,99.90
2018-07-28T02:43:38.078Z,99.90
2018-07-28T02:46:10.578Z,99.90
2018-07-28T02:48:42.352Z,99.90
2018-07-28T02:51:10.533Z,99.90
2018-07-28T02:53:43.968Z,99.90
2018-07-28T02:56:14.021Z,99.90
2018-07-28T02:58:42.968Z,99.90
2018-07-28T03:01:15.419Z,99.90
2018-07-28T03:03:47.964Z,99.90
2018-07-28T03:06:16.180Z,99.90
2018-07-28T03:08:45.410Z,99.90
2018-07-28T03:11:14.263Z,99.90
2018-07-28T03:13:42.631Z,99.90
2018-07-28T03:16:17.355Z,99.90
2018-07-28T03:18:49.931Z,99.90
2018-07-28T03:21:18.104Z,99.90
2018-07-28T03:23:46.298Z,99.90
2018-07-28T03:26:15.424Z,99.90
2018-07-28T03:28:43.650Z,99.90
2018-07-28T03:31:11.827Z,99.90
2018-07-28T03:33:44.550Z,99.90
2018-07-28T03:36:12.764Z,99.90
2018-07-28T03:38:40.975Z,99.90
2018-07-28T03:41:09.179Z,99.90
2018-07-28T03:43:37.522Z,99.90
2018-07-28T03:46:06.095Z,99.90
2018-07-28T03:48:38.655Z,99.90
2018-07-28T03:51:06.861Z,99.90
2018-07-28T03:53:35.936Z,99.90
2018-07-28T03:56:04.253Z,99.90
2018-07-28T03:58:32.440Z,99.90
2018-07-28T04:01:00.858Z,99.90
2018-07-28T04:03:36.099Z,99.90
2018-07-28T04:06:04.316Z,99.90
2018-07-28T04:08:32.507Z,99.90
2018-07-28T04:11:01.100Z,99.90
2018-07-28T04:13:29.297Z,99.90
2018-07-28T04:15:57.501Z,99.90
2018-07-28T04:20:58.700Z,99.90
2018-07-28T04:23:26.962Z,99.90
2018-07-28T04:25:55.154Z,99.90
2018-07-28T04:28:23.478Z,99.90
2018-07-28T04:33:19.699Z,99.90
2018-07-28T04:35:47.928Z,99.90
2018-07-28T04:38:16.117Z,99.90
2018-07-28T04:40:44.298Z,99.90
2018-07-28T04:43:12.552Z,99.90
2018-07-28T04:48:12.646Z,99.90
2018-07-28T04:53:09.536Z,99.90
2018-07-28T04:55:37.771Z,99.90
2018-07-28T04:58:06.168Z,99.90
2018-07-28T05:00:34.380Z,99.90
2018-07-28T05:03:05.298Z,99.90
2018-07-28T05:05:33.487Z,99.90
2018-07-28T05:08:01.712Z,99.90
2018-07-28T05:10:30.845Z,99.90
2018-07-28T05:12:59.084Z,99.90
2018-07-28T05:15:27.308Z,99.90
2018-07-28T05:18:02.916Z,99.70
2018-07-28T05:20:31.911Z,98.70
2018-07-28T05:23:00.126Z,98.00
2018-07-28T05:25:28.339Z,97.90
2018-07-28T05:27:56.907Z,98.40
2018-07-28T05:30:25.140Z,99.50
2018-07-28T05:32:53.356Z,99.60
2018-07-28T05:35:21.608Z,98.80
2018-07-28T05:37:49.808Z,97.70
2018-07-28T05:40:18.024Z,96.10
2018-07-28T05:42:46.371Z,94.30
2018-07-28T05:45:14.576Z,92.60
2018-07-28T05:47:42.763Z,91.40
2018-07-28T05:50:11.088Z,90.00
2018-07-28T05:52:39.232Z,86.90
2018-07-28T05:57:35.785Z,85.20
2018-07-28T06:00:04.839Z,84.80
2018-07-28T06:02:33.167Z,85.90
2018-07-28T06:05:01.255Z,88.80
2018-07-28T06:07:29.401Z,91.00
2018-07-28T06:09:57.632Z,90.90
2018-07-28T06:12:25.897Z,88.90
2018-07-28T06:17:23.247Z,82.60
2018-07-28T06:19:51.802Z,80.40
2018-07-28T06:22:20.112Z,77.80
2018-07-28T06:24:48.279Z,76.90
2018-07-28T06:27:16.495Z,76.90
2018-07-28T06:29:44.693Z,76.70
2018-07-28T06:32:12.880Z,75.40
2018-07-28T06:34:45.647Z,75.00
2018-07-28T06:37:13.880Z,74.70
2018-07-28T06:39:42.092Z,78.20
2018-07-28T06:42:10.271Z,80.30
2018-07-28T06:44:38.524Z,82.90
2018-07-28T06:47:06.723Z,84.60
2018-07-28T06:49:39.602Z,87.40
2018-07-28T06:52:07.779Z,89.90
2018-07-28T06:54:35.967Z,90.50
2018-07-28T06:57:04.225Z,91.90
2018-07-28T06:59:32.480Z,92.40
2018-07-28T07:02:00.676Z,92.20
2018-07-28T07:04:28.851Z,92.90
2018-07-28T07:06:57.058Z,93.70
2018-07-28T07:09:25.245Z,93.80
2018-07-28T07:11:53.452Z,94.70
2018-07-28T07:14:21.688Z,94.40
2018-07-28T07:16:49.904Z,94.70
2018-07-28T07:19:18.080Z,94.60
2018-07-28T07:21:46.294Z,95.20
2018-07-28T07:24:14.479Z,95.90
2018-07-28T07:26:42.649Z,95.60
2018-07-28T07:29:10.849Z,95.30
2018-07-28T07:31:39.016Z,95.20
2018-07-28T07:34:07.546Z,95.10
2018-07-28T07:36:35.723Z,95.10
2018-07-28T07:39:05.076Z,95.10
2018-07-28T07:44:01.744Z,95.40
2018-07-28T07:46:29.946Z,94.80
2018-07-28T07:48:58.316Z,95.40
2018-07-28T07:51:27.278Z,94.80
2018-07-28T07:53:55.865Z,94.90
2018-07-28T07:56:24.037Z,94.80
2018-07-28T07:58:53.159Z,95.10
2018-07-28T08:01:21.358Z,94.80
2018-07-28T08:03:49.644Z,95.30
2018-07-28T08:06:22.121Z,94.50
2018-07-28T08:11:19.753Z,94.50
2018-07-28T08:13:51.384Z,95.00
2018-07-28T08:16:19.608Z,94.20
2018-07-28T08:18:47.791Z,95.10
2018-07-28T08:21:20.400Z,94.40
2018-07-28T08:23:52.680Z,94.00
2018-07-28T08:26:20.944Z,94.40
2018-07-28T08:48:11.776Z,93.90
2018-07-28T08:50:40.140Z,94.40
2018-07-28T08:53:08.328Z,93.10
2018-07-28T08:55:36.925Z,93.20
2018-07-28T08:58:05.163Z,92.00
2018-07-28T09:00:33.377Z,92.10
2018-07-28T09:03:01.657Z,90.70
2018-07-28T09:05:29.935Z,89.60
2018-07-28T09:07:58.143Z,87.90
2018-07-28T09:10:26.364Z,87.90
2018-07-28T09:12:54.575Z,85.20
2018-07-28T09:15:22.783Z,86.20
2018-07-28T09:17:51.023Z,87.10
2018-07-28T09:20:19.182Z,85.60
2018-07-28T09:22:47.388Z,84.30
2018-07-28T09:25:15.634Z,83.60
2018-07-28T09:27:43.879Z,82.30
2018-07-28T09:30:12.428Z,81.20
2018-07-28T09:32:40.640Z,81.90
2018-07-28T09:35:08.842Z,81.00
2018-07-28T09:37:41.328Z,81.40
2018-07-28T09:40:09.617Z,84.30
2018-07-28T09:42:37.821Z,80.50
2018-07-28T09:45:06.332Z,80.00
2018-07-28T09:47:34.603Z,80.20
2018-07-28T09:50:04.536Z,79.60
2018-07-28T09:52:36.059Z,78.30
2018-07-28T09:55:04.586Z,79.10
2018-07-28T09:57:32.774Z,78.40
2018-07-28T10:00:01.003Z,77.50
2018-07-28T10:02:29.270Z,77.40
2018-07-28T10:04:57.542Z,79.80
2018-07-28T10:07:25.789Z,77.20
2018-07-28T10:09:57.043Z,76.40
2018-07-28T10:12:25.275Z,77.70
2018-07-28T10:17:23.428Z,74.40
2018-07-28T10:19:51.607Z,71.00
2018-07-28T10:22:19.888Z,70.40
2018-07-28T10:24:48.703Z,70.30
2018-07-28T10:27:16.959Z,66.30
2018-07-28T10:32:13.603Z,66.10
2018-07-28T10:34:41.888Z,67.50
2018-07-28T10:37:10.087Z,70.30
2018-07-28T10:39:41.796Z,70.60
2018-07-28T10:42:09.971Z,70.00
2018-07-28T10:44:38.715Z,69.50
2018-07-28T10:47:06.929Z,68.90
2018-07-28T10:49:35.132Z,66.30
2018-07-28T10:54:34.821Z,64.70
2018-07-28T10:57:03.050Z,64.70
2018-07-28T10:59:31.341Z,65.20
2018-07-28T11:02:00.201Z,65.00
2018-07-28T11:04:28.533Z,65.20
2018-07-28T11:06:56.752Z,65.30
2018-07-28T11:11:53.349Z,64.50
2018-07-28T11:14:21.543Z,64.10
2018-07-28T11:16:49.740Z,64.10
2018-07-28T11:19:18.185Z,63.90
2018-07-28T11:21:46.411Z,64.50
2018-07-28T11:24:14.649Z,64.30
2018-07-28T11:26:42.860Z,64.20
2018-07-28T11:29:11.061Z,64.40
2018-07-28T11:31:50.616Z,64.40
2018-07-28T11:34:30.576Z,64.00
2018-07-28T11:37:10.244Z,63.10
2018-07-28T11:39:49.620Z,63.80
2018-07-28T11:42:29.170Z,62.90
2018-07-28T11:45:10.029Z,62.20
2018-07-28T11:47:38.819Z,62.50
2018-07-28T11:50:07.748Z,61.10
2018-07-28T11:52:35.966Z,61.10
2018-07-28T11:55:04.260Z,60.50
2018-07-28T11:57:32.452Z,60.80
2018-07-28T12:00:00.671Z,59.60
2018-07-28T12:02:28.868Z,59.60
2018-07-28T12:07:25.962Z,59.70
2018-07-28T12:09:58.131Z,59.10
2018-07-28T12:12:26.330Z,59.10
2018-07-28T12:14:54.688Z,58.90
2018-07-28T12:17:23.580Z,58.60
2018-07-28T12:19:51.800Z,58.90
2018-07-28T12:22:20.292Z,59.30
2018-07-28T12:24:48.600Z,58.90
2018-07-28T12:27:16.787Z,59.40
2018-07-28T12:29:45.036Z,58.70
2018-07-28T12:32:13.221Z,57.80
2018-07-28T12:34:41.519Z,57.90
2018-07-28T12:37:09.622Z,57.50
2018-07-28T12:39:37.805Z,57.10
2018-07-28T12:42:06.026Z,57.30
2018-07-28T12:44:34.227Z,57.20
2018-07-28T12:47:02.427Z,56.90
2018-07-28T12:49:30.673Z,57.50
2018-07-28T12:51:59.223Z,57.40
2018-07-28T12:54:27.375Z,57.70
2018-07-28T12:56:55.607Z,57.40
2018-07-28T12:59:23.824Z,57.30
2018-07-28T13:01:52.096Z,57.60
2018-07-28T13:04:20.895Z,56.70
2018-07-28T13:06:49.098Z,56.90
2018-07-28T13:09:17.431Z,56.70
2018-07-28T13:11:46.623Z,57.30
2018-07-28T13:14:14.896Z,57.60
2018-07-28T13:16:43.580Z,57.30
2018-07-28T13:19:11.867Z,57.10
2018-07-28T13:21:40.155Z,57.50
2018-07-28T13:24:08.350Z,57.20
2018-07-28T13:29:05.903Z,56.80
2018-07-28T13:31:34.199Z,56.10
2018-07-28T13:36:30.795Z,56.00
2018-07-28T13:38:59.045Z,56.00
2018-07-28T13:41:27.545Z,55.70
2018-07-28T13:43:55.944Z,55.80
2018-07-28T13:46:24.170Z,54.80
2018-07-28T13:48:52.385Z,55.50
2018-07-28T13:51:20.880Z,55.90
2018-07-28T13:53:49.055Z,56.10
2018-07-28T13:56:17.349Z,55.90
2018-07-28T13:58:45.537Z,54.60
2018-07-28T14:01:13.984Z,52.90
2018-07-28T14:03:42.263Z,52.80
2018-07-28T14:06:10.758Z,52.00
2018-07-28T14:08:39.851Z,51.40
2018-07-28T14:11:08.388Z,52.40
2018-07-28T14:13:36.682Z,52.00
2018-07-28T14:16:04.989Z,51.50
2018-07-28T14:18:33.513Z,52.10
2018-07-28T14:21:01.632Z,52.70
2018-07-28T14:23:29.842Z,52.40
2018-07-28T14:25:58.027Z,51.70
2018-07-28T14:28:26.266Z,51.90
2018-07-28T14:30:54.790Z,51.90
2018-07-28T14:33:23.661Z,52.40
2018-07-28T14:35:51.916Z,53.80
2018-07-28T14:38:20.159Z,52.80
2018-07-28T14:40:48.568Z,53.30
2018-07-28T14:43:20.832Z,53.10
2018-07-28T14:45:49.181Z,52.50
2018-07-28T14:48:17.343Z,52.90
2018-07-28T14:50:45.618Z,54.30
2018-07-28T14:53:14.264Z,52.90
2018-07-28T14:55:42.460Z,52.20
2018-07-28T14:58:10.634Z,51.30
2018-07-28T15:03:11.259Z,52.00
2018-07-28T15:05:39.472Z,51.80
2018-07-28T15:08:07.709Z,52.40
2018-07-28T15:10:35.893Z,52.50
2018-07-28T15:13:08.043Z,53.50
2018-07-28T15:15:39.496Z,53.40
2018-07-28T15:18:07.701Z,53.90
2018-07-28T15:20:35.916Z,54.10
2018-07-28T15:25:29.516Z,53.70
2018-07-28T15:28:00.802Z,53.50
2018-07-28T15:30:33.347Z,53.50
2018-07-28T15:33:01.544Z,54.00
2018-07-28T15:35:30.122Z,54.40
2018-07-28T15:37:58.347Z,54.80
2018-07-28T15:40:27.490Z,54.70
2018-07-28T15:42:55.681Z,54.90
2018-07-28T15:45:23.844Z,55.30
2018-07-28T15:47:52.300Z,56.10
2018-07-28T15:50:20.405Z,55.60
2018-07-28T15:52:48.636Z,56.20
2018-07-28T15:55:16.799Z,55.70
2018-07-28T15:57:45.207Z,55.90
2018-07-28T16:00:15.316Z,56.10
2018-07-28T16:02:43.467Z,56.30
2018-07-28T16:05:11.660Z,56.30
2018-07-28T16:07:40.358Z,57.00
2018-07-28T16:10:09.274Z,56.70
2018-07-28T16:12:37.479Z,56.80
2018-07-28T16:15:09.849Z,56.80
2018-07-28T16:17:38.002Z,57.30
2018-07-28T16:20:06.367Z,57.30
2018-07-28T16:22:34.679Z,57.70
2018-07-28T16:25:02.920Z,57.70
2018-07-28T16:27:31.079Z,57.90
2018-07-28T16:30:04.059Z,58.00
2018-07-28T16:32:32.231Z,58.30
2018-07-28T16:35:00.418Z,59.30
2018-07-28T16:37:28.615Z,60.60
2018-07-28T16:39:56.863Z,61.60
2018-07-28T16:42:25.052Z,62.80
2018-07-28T16:44:57.814Z,63.60
2018-07-28T16:47:26.007Z,64.80
2018-07-28T16:49:55.035Z,64.90
2018-07-28T16:52:23.218Z,65.60
2018-07-28T16:54:51.411Z,65.80
2018-07-28T16:57:19.882Z,65.80
2018-07-28T16:59:51.075Z,65.80
2018-07-28T17:02:20.207Z,66.20
2018-07-28T17:04:48.436Z,66.50
2018-07-28T17:09:44.696Z,66.60
2018-07-28T17:12:12.931Z,66.60
2018-07-28T17:14:46.646Z,66.80
2018-07-28T17:17:15.800Z,65.90
2018-07-28T17:19:44.015Z,65.60
2018-07-28T17:22:12.208Z,65.00
2018-07-28T17:24:40.443Z,64.50
2018-07-28T17:27:08.640Z,64.10
2018-07-28T17:29:36.798Z,64.60
2018-07-28T17:32:05.198Z,65.10
2018-07-28T17:34:33.453Z,65.70
2018-07-28T17:37:01.620Z,66.20
2018-07-28T17:39:29.795Z,66.90
2018-07-28T17:41:58.004Z,66.10
2018-07-28T17:44:26.236Z,66.30
2018-07-28T17:46:54.879Z,66.60
2018-07-28T17:49:23.071Z,66.60
2018-07-28T17:51:51.244Z,67.00
2018-07-28T17:54:19.474Z,67.40
2018-07-28T17:56:47.696Z,67.60
2018-07-28T17:59:15.939Z,68.00
2018-07-28T18:01:44.087Z,69.20
2018-07-28T18:04:12.368Z,69.70
2018-07-28T18:06:40.547Z,70.80
2018-07-28T18:09:09.586Z,71.50
2018-07-28T18:14:06.800Z,73.60
2018-07-28T18:16:38.308Z,74.40
2018-07-28T18:19:06.532Z,74.90
2018-07-28T18:21:34.708Z,75.30
2018-07-28T18:24:02.889Z,75.70
2018-07-28T18:26:31.142Z,75.80
2018-07-28T18:28:59.351Z,77.00
2018-07-28T18:31:31.431Z,78.40
2018-07-28T18:33:59.618Z,79.00
2018-07-28T18:36:27.824Z,79.50
2018-07-28T18:38:56.040Z,80.10
2018-07-28T18:41:24.248Z,81.10
2018-07-28T18:43:52.472Z,81.70
2018-07-28T18:46:23.712Z,82.20
2018-07-28T18:48:51.970Z,82.80
2018-07-28T18:51:20.186Z,83.40
2018-07-28T18:53:48.817Z,83.90
2018-07-28T18:56:17.059Z,84.20
2018-07-28T18:58:45.674Z,84.60
2018-07-28T19:01:13.870Z,84.90
2018-07-28T19:03:42.207Z,85.50
2018-07-28T19:08:38.408Z,86.40
2018-07-28T19:11:07.384Z,87.00
2018-07-28T19:13:40.906Z,87.30
2018-07-28T19:16:09.175Z,88.50
2018-07-28T19:18:42.823Z,89.30
2018-07-28T19:21:11.164Z,90.10
2018-07-28T19:23:45.223Z,90.50
2018-07-28T19:26:13.423Z,90.60
2018-07-28T19:28:46.861Z,90.90
2018-07-28T19:31:16.033Z,91.20
2018-07-28T19:33:44.252Z,91.60
2018-07-28T19:36:17.903Z,91.80
2018-07-28T19:41:14.971Z,92.40
2018-07-28T19:43:43.201Z,92.60
2018-07-28T19:46:11.632Z,92.80
2018-07-28T19:48:47.392Z,93.00
2018-07-28T19:51:15.596Z,93.20
2018-07-28T19:56:12.527Z,93.70
2018-07-28T19:58:41.003Z,94.00
2018-07-28T20:01:10.528Z,94.10
2018-07-28T20:03:38.844Z,94.50
2018-07-28T20:06:11.803Z,94.70
2018-07-28T20:08:40.083Z,95.00
2018-07-28T20:11:08.307Z,95.20
2018-07-28T20:13:36.538Z,95.40
2018-07-28T20:18:38.719Z,95.90
2018-07-28T20:21:06.965Z,96.10
2018-07-28T20:23:35.359Z,96.40
2018-07-28T20:26:03.872Z,96.70
2018-07-28T20:28:32.089Z,97.00
2018-07-28T20:31:00.336Z,97.10
2018-07-28T20:33:28.789Z,97.50
2018-07-28T20:35:57.383Z,97.70
2018-07-28T20:40:53.764Z,98.30
2018-07-28T20:43:22.155Z,98.80
2018-07-28T20:45:50.471Z,98.90
2018-07-28T20:48:18.702Z,98.80
2018-07-28T20:50:51.011Z,99.10
2018-07-28T20:53:19.372Z,99.10
2018-07-28T20:55:48.360Z,98.90
2018-07-28T20:58:16.584Z,99.00
2018-07-28T21:00:44.855Z,99.00
2018-07-28T21:03:13.322Z,98.90
2018-07-28T21:05:45.685Z,99.20
2018-07-28T21:08:13.920Z,98.90
2018-07-28T21:10:42.140Z,98.80
2018-07-28T21:13:10.390Z,98.80
2018-07-28T21:15:38.589Z,98.80
2018-07-28T21:18:06.766Z,98.80
2018-07-28T21:20:38.753Z,98.90
2018-07-28T21:23:06.979Z,98.90
2018-07-28T21:25:35.195Z,99.00
2018-07-28T21:28:03.770Z,99.10
2018-07-28T21:30:31.927Z,99.40
2018-07-28T21:33:00.213Z,99.60
2018-07-28T21:35:32.592Z,99.70
2018-07-28T21:38:00.772Z,99.40
2018-07-28T21:40:28.994Z,99.60
2018-07-28T21:42:57.208Z,99.70
2018-07-28T21:45:25.386Z,99.70
2018-07-28T21:47:53.841Z,99.90
2018-07-28T21:50:22.035Z,99.90
2018-07-28T21:52:50.227Z,99.90
2018-07-28T21:55:18.459Z,99.90
2018-07-28T21:57:46.654Z,99.90
2018-07-28T22:00:14.862Z,99.90
2018-07-28T22:02:43.160Z,99.90
2018-07-28T22:05:15.501Z,99.90
2018-07-28T22:07:43.761Z,99.90
2018-07-28T22:10:11.946Z,99.90
2018-07-28T22:12:40.157Z,99.90
2018-07-28T22:15:08.398Z,99.90
2018-07-28T22:17:36.603Z,99.90
2018-07-28T22:20:06.383Z,99.90
2018-07-28T22:22:34.575Z,99.90
2018-07-28T22:25:03.075Z,99.90
2018-07-28T22:27:31.300Z,99.90
2018-07-28T22:29:59.493Z,99.90
2018-07-28T22:32:28.031Z,99.90
2018-07-28T22:34:56.192Z,99.90
2018-07-28T22:37:24.411Z,99.90
2018-07-28T22:39:52.634Z,99.90
2018-07-28T22:42:25.534Z,99.90
2018-07-28T22:44:54.220Z,99.90
2018-07-28T22:47:23.353Z,99.90
2018-07-28T22:49:51.595Z,99.90
2018-07-28T22:52:19.803Z,99.90
2018-07-28T22:54:48.001Z,99.90
2018-07-28T22:57:16.224Z,99.90
2018-07-28T22:59:44.395Z,99.90
2018-07-28T23:02:12.824Z,99.90
2018-07-28T23:04:41.051Z,99.90
2018-07-28T23:07:09.428Z,99.90
2018-07-28T23:09:37.620Z,99.90
2018-07-28T23:12:06.131Z,99.90
2018-07-28T23:14:34.339Z,99.90
2018-07-28T23:17:02.789Z,99.90
2018-07-28T23:19:30.990Z,99.90
2018-07-28T23:21:59.168Z,99.90
2018-07-28T23:24:27.372Z,99.90
2018-07-28T23:26:55.615Z,99.90
2018-07-28T23:29:23.839Z,99.90
2018-07-28T23:31:52.069Z,99.90
2018-07-28T23:34:20.280Z,99.90
2018-07-28T23:36:53.280Z,99.90
2018-07-28T23:39:22.262Z,99.90
2018-07-28T23:41:50.444Z,99.90
2018-07-28T23:44:18.719Z,99.90
2018-07-28T23:46:47.016Z,99.90
2018-07-28T23:49:15.235Z,99.90
2018-07-28T23:51:49.875Z,99.90
2018-07-28T23:54:18.143Z,99.90
2018-07-28T23:56:46.350Z,99.90
2018-07-28T23:59:14.573Z,99.90
